Time;durP1;ratioP1;P1;durP2;ratioP2;P2;SDS_P1;SDS_P2;PMS_P1;PMS_P2;Temp;Humidity;BMP_temperature;BMP_pressure;BME280_temperature;BME280_humidity;BME280_pressure;Samples;Min_cycle;Max_cycle;Signal;HPM_P1;HPM_P2
2023/05/03 00:01:07;;;;;;;16.33;7.05;;;6.80;54.50;;;;;;5073288;28;20777;-74
2023/05/03 00:03:33;;;;;;;13.43;7.55;;;6.80;53.60;;;;;;5078024;28;20401;-73
2023/05/03 00:06:09;;;;;;;15.77;7.15;;;6.70;54.30;;;;;;5074729;28;20411;-73
2023/05/03 00:08:34;;;;;;;14.40;7.03;;;6.80;53.60;;;;;;5075130;28;20437;-74
2023/05/03 00:11:00;;;;;;;13.40;7.53;;;6.50;56.00;;;;;;5075935;28;20425;-75
2023/05/03 00:13:25;;;;;;;14.50;7.50;;;6.50;56.40;;;;;;5078173;28;20379;-74
2023/05/03 00:15:51;;;;;;;11.43;7.13;;;6.20;58.90;;;;;;5078648;28;20523;-73
2023/05/03 00:18:16;;;;;;;16.33;7.80;;;6.20;60.10;;;;;;5079845;28;20486;-73
2023/05/03 00:20:42;;;;;;;16.42;7.78;;;6.40;58.50;;;;;;5082769;28;20391;-73
2023/05/03 00:23:07;;;;;;;12.80;7.20;;;6.30;58.20;;;;;;5081742;28;20390;-73
2023/05/03 00:25:33;;;;;;;16.08;7.70;;;6.40;58.40;;;;;;5075828;28;20384;-73
2023/05/03 00:27:59;;;;;;;14.20;7.15;;;6.50;57.80;;;;;;5075846;28;20430;-72
2023/05/03 00:30:24;;;;;;;15.70;8.17;;;6.50;57.40;;;;;;5076147;28;20372;-73
2023/05/03 00:32:50;;;;;;;14.60;7.60;;;6.30;58.50;;;;;;5080508;28;20403;-73
2023/05/03 00:35:16;;;;;;;18.63;8.20;;;6.40;58.80;;;;;;5093750;28;20440;-73
2023/05/03 00:37:41;;;;;;;18.60;8.00;;;6.60;57.20;;;;;;5076405;28;20388;-73
2023/05/03 00:40:07;;;;;;;13.60;7.60;;;6.70;57.40;;;;;;5091470;28;20435;-74
2023/05/03 00:42:38;;;;;;;15.40;7.60;;;6.60;58.20;;;;;;5091218;28;20383;-73
2023/05/03 00:45:04;;;;;;;15.88;7.65;;;6.60;59.20;;;;;;5073984;28;20415;-73
2023/05/03 00:47:31;;;;;;;15.23;8.07;;;6.50;60.20;;;;;;5073618;28;20411;-73
2023/05/03 00:49:58;;;;;;;17.45;8.57;;;6.40;60.80;;;;;;5074046;28;20383;-74
2023/05/03 00:52:24;;;;;;;17.48;8.30;;;6.10;64.90;;;;;;5072622;28;20390;-73
2023/05/03 00:54:49;;;;;;;15.35;7.68;;;6.10;65.10;;;;;;5055257;28;20388;-73
2023/05/03 00:57:15;;;;;;;26.30;9.63;;;6.00;66.20;;;;;;5073013;28;20395;-72
2023/05/03 00:59:41;;;;;;;14.13;8.10;;;5.80;68.10;;;;;;5073953;28;20391;-74
2023/05/03 01:02:07;;;;;;;15.82;8.82;;;5.70;70.50;;;;;;5074161;28;20781;-74
2023/05/03 01:04:33;;;;;;;17.75;8.60;;;5.60;70.70;;;;;;5073932;28;20384;-74
2023/05/03 01:07:17;;;;;;;18.47;9.00;;;5.70;71.40;;;;;;5073798;28;20807;-74
2023/05/03 01:09:57;;;;;;;17.88;8.60;;;5.90;69.90;;;;;;5074374;28;20402;-74
2023/05/03 01:12:40;;;;;;;13.60;7.70;;;6.20;68.20;;;;;;5072333;28;20410;-73
2023/05/03 01:15:18;;;;;;;17.85;8.80;;;6.30;66.70;;;;;;5058533;28;20391;-73
2023/05/03 01:18:07;;;;;;;15.20;8.07;;;6.30;65.70;;;;;;5084827;28;20875;-73
2023/05/03 01:20:36;;;;;;;14.38;8.60;;;6.40;65.30;;;;;;5085187;28;20432;-73
2023/05/03 01:23:11;;;;;;;18.23;8.40;;;6.30;64.60;;;;;;5084705;28;20463;-74
2023/05/03 01:25:36;;;;;;;16.08;7.80;;;6.20;64.60;;;;;;5084186;28;20768;-73
2023/05/03 01:28:02;;;;;;;17.83;8.07;;;6.30;61.90;;;;;;5085469;28;20408;-73
2023/05/03 01:30:30;;;;;;;16.03;8.60;;;6.20;60.00;;;;;;5082096;28;20383;-74
2023/05/03 01:33:04;;;;;;;14.90;8.52;;;6.20;59.90;;;;;;5075950;28;20442;-73
2023/05/03 01:35:54;;;;;;;14.93;7.77;;;6.10;60.80;;;;;;5054113;28;20441;-74
2023/05/03 01:38:21;;;;;;;21.35;9.40;;;5.90;63.30;;;;;;5072198;28;20478;-73
2023/05/03 01:40:58;;;;;;;16.65;10.43;;;5.70;64.40;;;;;;5071693;28;20380;-73
2023/05/03 01:43:24;;;;;;;18.67;9.20;;;5.40;68.50;;;;;;5054130;28;20471;-73
2023/05/03 01:45:50;;;;;;;14.23;8.40;;;5.30;71.10;;;;;;5071915;28;20787;-73
2023/05/03 01:48:17;;;;;;;12.30;8.57;;;5.20;71.80;;;;;;5071721;28;20403;-73
2023/05/03 01:50:43;;;;;;;13.80;8.57;;;5.30;72.00;;;;;;5078894;28;20456;-74
2023/05/03 01:53:09;;;;;;;15.63;8.85;;;5.40;71.40;;;;;;5085806;28;20386;-74
2023/05/03 01:55:35;;;;;;;14.00;8.90;;;5.40;69.70;;;;;;5069404;28;20391;-74
2023/05/03 01:58:00;;;;;;;15.20;8.37;;;5.40;69.70;;;;;;5087686;28;20395;-74
2023/05/03 02:00:26;;;;;;;14.60;8.17;;;5.30;70.30;;;;;;5089881;28;20380;-73
2023/05/03 02:02:51;;;;;;;16.57;8.40;;;5.50;69.60;;;;;;5090100;28;20388;-73
2023/05/03 02:05:17;;;;;;;14.90;8.25;;;5.60;67.20;;;;;;5092381;28;20398;-74
2023/05/03 02:07:43;;;;;;;17.42;8.60;;;5.80;63.20;;;;;;5092305;28;20435;-74
2023/05/03 02:10:13;;;;;;;15.02;8.40;;;5.90;61.60;;;;;;5092187;28;20379;-74
2023/05/03 02:12:40;;;;;;;13.30;8.45;;;5.90;61.20;;;;;;5089557;28;20471;-74
2023/05/03 02:15:06;;;;;;;15.73;8.07;;;5.90;61.10;;;;;;5093263;28;20421;-74
2023/05/03 02:17:33;;;;;;;14.80;8.10;;;5.80;60.60;;;;;;5092022;28;20441;-74
2023/05/03 02:19:58;;;;;;;16.13;8.77;;;5.80;60.20;;;;;;5092211;28;20784;-74
2023/05/03 02:22:24;;;;;;;17.92;8.23;;;5.80;60.70;;;;;;5091168;28;20402;-74
2023/05/03 02:24:49;;;;;;;18.40;8.90;;;5.70;61.60;;;;;;5091712;28;20406;-74
2023/05/03 02:27:15;;;;;;;16.27;9.10;;;5.70;61.90;;;;;;5090956;28;20415;-74
2023/05/03 02:29:41;;;;;;;19.93;9.27;;;5.70;62.50;;;;;;5090965;28;20371;-73
2023/05/03 02:32:06;;;;;;;16.43;9.20;;;5.70;63.00;;;;;;5084601;28;20383;-73
2023/05/03 02:34:32;;;;;;;17.97;10.13;;;5.50;63.40;;;;;;5062296;28;20387;-73
2023/05/03 02:36:58;;;;;;;15.93;9.50;;;5.30;67.70;;;;;;5080465;28;20380;-73
2023/05/03 02:39:23;;;;;;;17.85;9.38;;;5.20;69.00;;;;;;5082705;28;20537;-73
2023/05/03 02:41:49;;;;;;;15.70;8.70;;;5.20;71.20;;;;;;5079547;28;20416;-73
2023/05/03 02:44:15;;;;;;;17.43;8.87;;;5.30;71.40;;;;;;5071784;28;20388;-73
2023/05/03 02:46:41;;;;;;;18.63;9.98;;;5.20;71.20;;;;;;5071243;28;20449;-73
2023/05/03 02:49:07;;;;;;;23.30;11.00;;;5.00;73.30;;;;;;5071045;28;20418;-73
2023/05/03 02:51:33;;;;;;;18.45;9.40;;;5.00;75.90;;;;;;5070401;28;20412;-73
2023/05/03 02:53:58;;;;;;;17.00;10.20;;;5.20;75.00;;;;;;5070918;28;20375;-73
2023/05/03 02:56:27;;;;;;;19.67;9.57;;;5.40;73.40;;;;;;5070804;28;20390;-71
2023/05/03 02:58:53;;;;;;;17.10;9.20;;;5.60;72.10;;;;;;5070824;28;20463;-74
2023/05/03 03:01:19;;;;;;;16.33;10.00;;;5.60;72.80;;;;;;5052448;28;20748;-73
2023/05/03 03:03:45;;;;;;;18.60;10.10;;;5.50;73.40;;;;;;5071987;28;20900;-75
2023/05/03 03:06:11;;;;;;;18.38;10.35;;;5.50;72.40;;;;;;5071216;28;20391;-73
2023/05/03 03:08:36;;;;;;;17.65;9.80;;;5.40;72.90;;;;;;5075968;28;20410;-74
2023/05/03 03:11:03;;;;;;;17.13;9.70;;;5.30;73.10;;;;;;5072668;28;20783;-74
2023/05/03 03:13:28;;;;;;;16.52;9.98;;;5.30;71.90;;;;;;5071858;28;20394;-73
2023/05/03 03:15:54;;;;;;;16.23;9.87;;;5.20;70.70;;;;;;5077099;28;20454;-74
2023/05/03 03:18:19;;;;;;;17.47;9.87;;;5.20;70.60;;;;;;5076689;28;20514;-72
2023/05/03 03:20:45;;;;;;;16.13;9.20;;;5.20;70.30;;;;;;5072586;28;20450;-73
2023/05/03 03:23:11;;;;;;;17.00;9.37;;;5.10;70.10;;;;;;5073071;28;20391;-75
2023/05/03 03:25:36;;;;;;;18.38;9.00;;;5.20;69.50;;;;;;5073620;28;20744;-75
2023/05/03 03:28:02;;;;;;;21.48;9.63;;;5.20;69.20;;;;;;5074543;28;20400;-72
2023/05/03 03:30:28;;;;;;;15.63;9.45;;;5.20;68.40;;;;;;5077455;28;20464;-73
2023/05/03 03:32:54;;;;;;;17.30;9.80;;;5.00;70.40;;;;;;5071484;28;20391;-74
2023/05/03 03:35:20;;;;;;;15.63;9.38;;;5.00;70.50;;;;;;5079996;28;20380;-74
2023/05/03 03:37:45;;;;;;;20.47;9.50;;;5.00;70.60;;;;;;5080107;28;20379;-73
2023/05/03 03:40:11;;;;;;;21.13;10.13;;;5.10;69.00;;;;;;5070004;28;20726;-74
2023/05/03 03:42:38;;;;;;;18.48;10.82;;;4.90;71.10;;;;;;5070935;28;20384;-74
2023/05/03 03:45:04;;;;;;;22.47;11.40;;;4.90;71.10;;;;;;5074221;28;20408;-72
2023/05/03 03:47:30;;;;;;;22.05;10.90;;;4.80;71.50;;;;;;5074105;28;20404;-74
2023/05/03 03:49:55;;;;;;;18.97;10.83;;;4.50;74.70;;;;;;5073938;28;20864;-73
2023/05/03 03:52:21;;;;;;;17.83;10.53;;;4.40;77.60;;;;;;5073545;28;20454;-74
2023/05/03 03:54:47;;;;;;;18.57;11.63;;;4.20;79.90;;;;;;5074159;28;20891;-73
2023/05/03 03:57:12;;;;;;;18.20;10.13;;;4.20;82.40;;;;;;5073994;28;20383;-74
2023/05/03 03:59:38;;;;;;;17.63;10.90;;;4.40;81.40;;;;;;5073926;28;20379;-73
2023/05/03 04:02:03;;;;;;;20.27;12.00;;;4.40;78.40;;;;;;5073551;28;20724;-73
2023/05/03 04:04:30;;;;;;;21.30;12.30;;;4.30;80.00;;;;;;5074248;28;20387;-73
2023/05/03 04:06:55;;;;;;;18.35;11.10;;;4.20;81.60;;;;;;5055666;28;20403;-74
2023/05/03 04:09:21;;;;;;;17.85;11.10;;;4.30;81.40;;;;;;5073405;28;20957;-73
2023/05/03 04:11:47;;;;;;;22.38;11.30;;;4.40;80.80;;;;;;5073305;28;20921;-74
2023/05/03 04:14:12;;;;;;;19.92;10.73;;;4.50;80.10;;;;;;5056198;28;20873;-72
2023/05/03 04:16:38;;;;;;;23.27;13.60;;;4.70;76.00;;;;;;5073657;28;20505;-74
2023/05/03 04:19:03;;;;;;;24.27;11.70;;;4.80;75.40;;;;;;5073390;28;20517;-72
2023/05/03 04:21:29;;;;;;;20.63;12.40;;;4.90;73.70;;;;;;5072917;28;20819;-72
2023/05/03 04:23:54;;;;;;;22.97;12.37;;;4.90;73.90;;;;;;5073459;28;20902;-74
2023/05/03 04:26:21;;;;;;;22.03;11.90;;;5.10;74.50;;;;;;5073509;28;20997;-73
2023/05/03 04:28:47;;;;;;;21.02;11.38;;;5.40;71.30;;;;;;5072905;28;20457;-73
2023/05/03 04:31:13;;;;;;;14.07;10.10;;;5.50;69.40;;;;;;5073185;28;20797;-73
2023/05/03 04:33:39;;;;;;;16.30;10.20;;;5.70;64.60;;;;;;5073466;28;20460;-73
2023/05/03 04:36:05;;;;;;;21.50;11.43;;;6.00;61.00;;;;;;5073077;28;20455;-73
2023/05/03 04:38:31;;;;;;;17.92;10.27;;;6.20;61.40;;;;;;5073059;28;20474;-74
2023/05/03 04:40:57;;;;;;;21.85;9.82;;;6.30;57.80;;;;;;5072925;28;20644;-73
2023/05/03 04:43:23;;;;;;;22.45;10.10;;;6.50;53.20;;;;;;5073056;28;20380;-73
2023/05/03 04:45:50;;;;;;;17.47;9.67;;;6.60;52.50;;;;;;5073221;28;20411;-73
2023/05/03 04:48:16;;;;;;;14.38;10.05;;;6.50;52.00;;;;;;5072769;28;20422;-74
2023/05/03 04:50:42;;;;;;;20.75;10.80;;;6.40;54.40;;;;;;5073107;28;20380;-74
2023/05/03 04:53:08;;;;;;;21.70;10.70;;;6.40;53.40;;;;;;5072319;28;20744;-73
2023/05/03 04:55:33;;;;;;;20.30;10.40;;;6.50;52.90;;;;;;5073008;28;20380;-72
2023/05/03 04:57:59;;;;;;;21.30;10.65;;;6.50;53.60;;;;;;5073376;28;20489;-73
2023/05/03 05:00:25;;;;;;;30.95;11.38;;;6.40;53.90;;;;;;5072996;28;20458;-73
2023/05/03 05:02:50;;;;;;;22.45;10.73;;;6.50;53.40;;;;;;5072475;28;20860;-74
2023/05/03 05:05:16;;;;;;;24.27;10.40;;;6.60;51.60;;;;;;5072712;28;20831;-73
2023/05/03 05:07:42;;;;;;;25.25;10.90;;;6.60;51.30;;;;;;5072044;28;20453;-73
2023/05/03 05:10:08;;;;;;;25.60;10.83;;;6.70;51.60;;;;;;5072728;28;20876;-73
2023/05/03 05:12:33;;;;;;;19.55;9.82;;;6.70;51.70;;;;;;5072353;28;20383;-72
2023/05/03 05:14:59;;;;;;;18.60;10.25;;;6.80;51.00;;;;;;5074097;28;20441;-73
2023/05/03 05:17:25;;;;;;;21.98;11.85;;;6.80;51.80;;;;;;5076098;28;20395;-73
2023/05/03 05:19:51;;;;;;;25.45;12.07;;;6.80;51.30;;;;;;5073399;28;20392;-73
2023/05/03 05:22:16;;;;;;;21.17;10.75;;;6.80;51.80;;;;;;5072049;28;20433;-73
2023/05/03 05:24:42;;;;;;;23.65;13.27;;;6.90;51.70;;;;;;5072359;28;20483;-73
2023/05/03 05:27:08;;;;;;;17.40;10.27;;;7.10;50.30;;;;;;5071988;28;20829;-73
2023/05/03 05:29:33;;;;;;;29.15;13.02;;;7.30;48.40;;;;;;5071750;28;20376;-73
2023/05/03 05:32:02;;;;;;;23.10;11.52;;;7.40;51.10;;;;;;5053776;28;20384;-73
2023/05/03 05:34:27;;;;;;;19.80;11.00;;;7.60;48.20;;;;;;5071988;28;20785;-73
2023/05/03 05:36:53;;;;;;;19.00;10.70;;;7.70;46.50;;;;;;5072787;28;20407;-73
2023/05/03 05:39:19;;;;;;;22.92;11.55;;;7.80;46.80;;;;;;5073206;28;20384;-73
2023/05/03 05:41:45;;;;;;;20.35;10.90;;;7.90;47.30;;;;;;5072177;28;20437;-74
2023/05/03 05:44:12;;;;;;;22.98;10.82;;;8.00;44.00;;;;;;5071813;28;20384;-73
2023/05/03 05:46:37;;;;;;;21.23;10.10;;;8.10;44.10;;;;;;5071417;28;20474;-74
2023/05/03 05:49:03;;;;;;;21.02;10.95;;;8.20;40.20;;;;;;5071628;28;20486;-74
2023/05/03 05:51:30;;;;;;;18.75;10.30;;;8.30;41.50;;;;;;5071478;28;20383;-74
2023/05/03 05:53:56;;;;;;;17.30;9.63;;;8.30;39.70;;;;;;5071581;28;20483;-73
2023/05/03 05:56:21;;;;;;;18.57;9.97;;;8.50;39.70;;;;;;5072036;28;20415;-73
2023/05/03 05:58:47;;;;;;;22.27;11.07;;;8.60;39.80;;;;;;5071900;28;20523;-75
2023/05/03 06:01:13;;;;;;;19.77;10.73;;;8.70;38.50;;;;;;5071715;28;20441;-74
2023/05/03 06:03:38;;;;;;;20.95;10.70;;;8.70;40.20;;;;;;5072054;28;20456;-74
2023/05/03 06:06:04;;;;;;;20.25;11.25;;;8.70;37.30;;;;;;5071468;28;20434;-74
2023/05/03 06:08:30;;;;;;;19.85;11.07;;;8.80;41.00;;;;;;5071525;28;20403;-74
2023/05/03 06:10:55;;;;;;;22.95;10.80;;;8.90;41.40;;;;;;5071126;28;20387;-74
2023/05/03 06:13:21;;;;;;;17.17;10.18;;;8.90;39.30;;;;;;5071379;28;20384;-74
2023/05/03 06:15:47;;;;;;;18.13;9.60;;;9.10;37.80;;;;;;5071986;28;20406;-74
2023/05/03 06:18:13;;;;;;;20.93;10.70;;;9.00;36.60;;;;;;5071699;28;20400;-73
2023/05/03 06:20:38;;;;;;;18.80;10.10;;;9.20;38.90;;;;;;5071337;28;20839;-72
2023/05/03 06:23:04;;;;;;;20.85;10.15;;;9.30;37.80;;;;;;5075306;28;20385;-73
2023/05/03 06:25:29;;;;;;;17.10;10.00;;;9.50;36.20;;;;;;5075996;28;20776;-73
2023/05/03 06:27:56;;;;;;;17.90;9.13;;;9.60;37.70;;;;;;5074250;28;20415;-74
2023/05/03 06:30:22;;;;;;;18.42;9.73;;;9.70;37.00;;;;;;5080170;28;20384;-74
2023/05/03 06:32:48;;;;;;;16.40;9.07;;;9.70;33.90;;;;;;5074294;28;20388;-74
2023/05/03 06:35:14;;;;;;;17.27;9.70;;;9.90;35.10;;;;;;5071143;28;20395;-75
2023/05/03 06:37:42;;;;;;;17.40;9.50;;;10.00;34.20;;;;;;5071109;28;20390;-73
2023/05/03 06:40:08;;;;;;;15.68;9.13;;;10.10;33.70;;;;;;5071474;28;20455;-73
2023/05/03 06:42:33;;;;;;;17.23;9.10;;;10.20;32.70;;;;;;5070383;28;20464;-73
2023/05/03 06:44:59;;;;;;;17.90;9.07;;;10.20;33.60;;;;;;5070595;28;20384;-73
2023/05/03 06:47:25;;;;;;;16.30;10.27;;;10.30;31.50;;;;;;5069681;28;20441;-70
2023/05/03 06:49:50;;;;;;;15.40;9.33;;;10.30;33.10;;;;;;5071034;28;20383;-70
2023/05/03 06:52:16;;;;;;;15.40;8.50;;;10.50;32.70;;;;;;5069701;28;20392;-72
2023/05/03 06:54:42;;;;;;;15.50;9.37;;;10.50;30.20;;;;;;5071120;28;20383;-72
2023/05/03 06:57:09;;;;;;;19.08;8.88;;;10.50;29.90;;;;;;5070855;28;20388;-71
2023/05/03 06:59:35;;;;;;;17.90;8.57;;;10.50;30.00;;;;;;5070151;28;20474;-71
2023/05/03 07:02:00;;;;;;;17.13;9.23;;;10.50;29.70;;;;;;5069925;28;20963;-70
2023/05/03 07:04:26;;;;;;;14.77;8.70;;;10.70;30.90;;;;;;5070783;28;20739;-70
2023/05/03 07:06:51;;;;;;;16.23;9.00;;;10.80;29.10;;;;;;5070493;28;20455;-70
2023/05/03 07:09:17;;;;;;;16.00;7.60;;;11.00;29.30;;;;;;5070692;28;20384;-72
2023/05/03 07:11:48;;;;;;;19.00;8.00;;;11.00;25.10;;;;;;5069823;28;20409;-71
2023/05/03 07:14:14;;;;;;;16.60;8.70;;;11.00;27.30;;;;;;5052622;28;20888;-71
2023/05/03 07:16:40;;;;;;;17.65;9.70;;;11.00;28.10;;;;;;5072051;28;20396;-71
2023/05/03 07:19:09;;;;;;;12.13;7.47;;;11.20;27.90;;;;;;5056468;28;20399;-71
2023/05/03 07:21:34;;;;;;;13.10;7.28;;;11.20;26.00;;;;;;5074136;28;20375;-70
2023/05/03 07:24:00;;;;;;;14.40;8.60;;;11.40;23.30;;;;;;5074609;28;20384;-70
2023/05/03 07:26:26;;;;;;;14.00;7.85;;;11.40;25.90;;;;;;5074146;28;20395;-70
2023/05/03 07:28:52;;;;;;;12.25;6.63;;;11.30;25.50;;;;;;5074397;28;20403;-71
2023/05/03 07:31:18;;;;;;;14.47;7.37;;;11.50;25.20;;;;;;5072320;28;20520;-71
2023/05/03 07:33:44;;;;;;;13.23;7.30;;;11.30;22.70;;;;;;5054463;28;20754;-70
2023/05/03 07:36:10;;;;;;;14.35;6.18;;;11.50;22.50;;;;;;5054321;28;20374;-70
2023/05/03 07:38:36;;;;;;;16.20;7.30;;;11.60;20.40;;;;;;5054701;28;20389;-72
2023/05/03 07:41:02;;;;;;;15.70;7.33;;;11.70;20.60;;;;;;5035776;28;20951;-72
2023/05/03 07:43:28;;;;;;;11.48;6.38;;;11.50;22.20;;;;;;5054418;28;21000;-72
2023/05/03 07:45:53;;;;;;;13.00;6.90;;;11.60;20.70;;;;;;5054467;28;20551;-72
2023/05/03 07:48:19;;;;;;;14.60;6.93;;;11.60;20.70;;;;;;5065846;28;20415;-72
2023/05/03 07:50:45;;;;;;;13.45;6.10;;;11.60;20.10;;;;;;5079946;28;20438;-74
2023/05/03 07:53:11;;;;;;;10.00;6.40;;;11.60;19.00;;;;;;5079776;28;20467;-73
2023/05/03 07:55:37;;;;;;;13.23;6.80;;;11.70;20.00;;;;;;5073540;28;20380;-73
2023/05/03 07:58:03;;;;;;;11.18;5.88;;;11.70;19.70;;;;;;5054569;28;20385;-73
2023/05/03 08:00:29;;;;;;;10.95;6.47;;;11.80;20.00;;;;;;5036280;28;20403;-72
2023/05/03 08:02:55;;;;;;;10.73;6.55;;;12.00;19.40;;;;;;5058023;28;20395;-73
2023/05/03 08:05:22;;;;;;;8.37;5.63;;;11.90;18.50;;;;;;5069884;28;20399;-73
2023/05/03 08:07:48;;;;;;;9.88;5.55;;;12.00;18.50;;;;;;5054042;28;20418;-73
2023/05/03 08:10:14;;;;;;;10.35;5.70;;;12.10;18.00;;;;;;5071828;28;20872;-73
2023/05/03 08:12:40;;;;;;;13.45;6.40;;;12.00;18.40;;;;;;5070768;28;20452;-74
2023/05/03 08:15:06;;;;;;;14.43;6.97;;;12.10;19.30;;;;;;5069778;28;20388;-73
2023/05/03 08:17:38;;;;;;;13.27;6.50;;;12.10;18.90;;;;;;5073436;28;20790;-73
2023/05/03 08:20:04;;;;;;;9.10;6.05;;;12.00;18.10;;;;;;5073275;28;20411;-74
2023/05/03 08:22:30;;;;;;;10.20;6.30;;;12.20;17.50;;;;;;5072331;28;20396;-75
2023/05/03 08:24:56;;;;;;;12.02;6.60;;;12.20;17.70;;;;;;5075857;28;20402;-74
2023/05/03 08:27:23;;;;;;;10.65;6.35;;;12.20;18.40;;;;;;5073663;28;20406;-74
2023/05/03 08:29:49;;;;;;;9.18;5.82;;;12.20;17.80;;;;;;5073490;28;20407;-77
2023/05/03 08:32:14;;;;;;;19.92;6.50;;;12.40;18.70;;;;;;5073868;28;20395;-74
2023/05/03 08:34:40;;;;;;;15.33;7.13;;;12.50;19.00;;;;;;5072871;28;20392;-71
2023/05/03 08:37:06;;;;;;;9.60;6.40;;;12.40;18.90;;;;;;5073329;28;20376;-72
2023/05/03 08:39:32;;;;;;;13.30;6.97;;;12.60;17.30;;;;;;5060288;28;20473;-73
2023/05/03 08:41:59;;;;;;;22.67;8.35;;;12.60;17.70;;;;;;5063159;28;20376;-72
2023/05/03 08:44:49;;;;;;;13.32;6.78;;;12.60;19.30;;;;;;5073428;28;20429;-72
2023/05/03 08:47:15;;;;;;;12.63;7.25;;;12.50;17.60;;;;;;5072412;28;20466;-72
2023/05/03 08:49:42;;;;;;;17.42;8.30;;;12.40;18.50;;;;;;5072375;28;20394;-72
2023/05/03 08:52:10;;;;;;;11.20;6.27;;;12.60;18.50;;;;;;5065924;28;20426;-71
2023/05/03 08:54:36;;;;;;;15.30;7.10;;;12.80;16.40;;;;;;5072606;28;20395;-72
2023/05/03 08:57:02;;;;;;;13.55;5.95;;;12.80;16.70;;;;;;5073068;28;20383;-74
2023/05/03 08:59:28;;;;;;;12.73;5.80;;;12.90;15.90;;;;;;5072152;28;20468;-77
2023/05/03 09:01:54;;;;;;;14.27;6.07;;;13.00;15.90;;;;;;5072613;28;20467;-73
2023/05/03 09:04:30;;;;;;;9.05;5.55;;;13.10;15.70;;;;;;5072765;28;20675;-73
2023/05/03 09:07:07;;;;;;;10.13;5.10;;;12.90;15.30;;;;;;5072966;28;20368;-73
2023/05/03 09:09:33;;;;;;;12.32;5.63;;;12.70;15.60;;;;;;5072713;28;20376;-72
2023/05/03 09:11:58;;;;;;;12.80;5.87;;;12.80;16.50;;;;;;5071866;28;20760;-73
2023/05/03 09:14:24;;;;;;;9.87;5.87;;;12.90;17.70;;;;;;5074253;28;20463;-73
2023/05/03 09:16:49;;;;;;;9.13;5.57;;;13.00;16.30;;;;;;5075166;28;20479;-74
2023/05/03 09:19:15;;;;;;;7.55;5.07;;;12.90;16.70;;;;;;5098454;22;20422;-72
2023/05/03 09:21:43;;;;;;;12.65;5.65;;;13.10;15.80;;;;;;5092893;28;20409;-72
2023/05/03 09:24:14;;;;;;;9.25;5.45;;;13.30;17.20;;;;;;5093343;28;20481;-72
2023/05/03 09:26:41;;;;;;;10.35;5.30;;;13.30;14.80;;;;;;5091711;28;20735;-72
2023/05/03 09:29:07;;;;;;;10.50;5.40;;;13.10;15.20;;;;;;5102084;28;20539;-74
2023/05/03 09:31:33;;;;;;;9.25;4.80;;;13.00;15.10;;;;;;5112725;28;20472;-73
2023/05/03 09:34:00;;;;;;;12.70;6.00;;;13.10;15.60;;;;;;5113004;28;20498;-73
2023/05/03 09:36:28;;;;;;;10.30;6.03;;;13.20;17.30;;;;;;5113088;28;20781;-73
2023/05/03 09:38:54;;;;;;;11.40;6.13;;;13.30;15.80;;;;;;5112952;28;20788;-73
2023/05/03 09:41:27;;;;;;;10.05;5.75;;;13.40;16.20;;;;;;5111196;28;20460;-72
2023/05/03 09:43:55;;;;;;;9.60;5.30;;;13.60;16.20;;;;;;5112830;28;20376;-73
2023/05/03 09:46:22;;;;;;;10.48;6.05;;;13.80;15.10;;;;;;5112668;28;20404;-71
2023/05/03 09:48:49;;;;;;;9.52;5.75;;;13.80;15.90;;;;;;5112457;28;20464;-71
2023/05/03 09:51:15;;;;;;;13.07;6.30;;;13.70;14.90;;;;;;5112690;28;21107;-72
2023/05/03 09:53:41;;;;;;;12.00;6.07;;;13.70;15.60;;;;;;5094050;28;20757;-73
2023/05/03 09:56:11;;;;;;;9.05;6.53;;;13.90;16.00;;;;;;5112457;28;20372;-71
2023/05/03 09:58:37;;;;;;;8.07;5.80;;;14.10;15.60;;;;;;5095042;28;20908;-73
2023/05/03 10:01:03;;;;;;;11.83;5.60;;;14.10;15.20;;;;;;5112107;28;20372;-71
2023/05/03 10:03:40;;;;;;;8.18;5.00;;;14.20;14.50;;;;;;5113028;28;20865;-71
2023/05/03 10:06:12;;;;;;;15.27;7.80;;;14.00;13.10;;;;;;5112587;28;20925;-72
2023/05/03 10:09:11;;;;;;;11.75;6.43;;;13.90;15.20;;;;;;5112541;28;20419;-72
2023/05/03 10:11:36;;;;;;;11.48;6.22;;;14.10;14.40;;;;;;5095497;28;20376;-72
2023/05/03 10:14:04;;;;;;;7.97;5.40;;;14.10;15.50;;;;;;5112532;28;20372;-73
2023/05/03 10:16:35;;;;;;;14.95;6.55;;;14.30;14.40;;;;;;5113747;28;20376;-71
2023/05/03 10:19:15;;;;;;;10.23;6.20;;;14.30;15.10;;;;;;5112411;28;20392;-72
2023/05/03 10:22:07;;;;;;;13.80;6.20;;;14.30;16.20;;;;;;5111381;28;20846;-73
2023/05/03 10:24:33;;;;;;;9.05;6.35;;;14.40;14.40;;;;;;5112919;28;20368;-72
2023/05/03 10:26:59;;;;;;;9.47;6.33;;;14.50;14.90;;;;;;5112672;28;20380;-73
2023/05/03 10:29:34;;;;;;;12.30;7.13;;;14.20;13.90;;;;;;5113030;28;20409;-71
2023/05/03 10:32:01;;;;;;;15.65;7.45;;;14.40;15.80;;;;;;5112574;28;20378;-75
2023/05/03 10:34:34;;;;;;;12.75;6.70;;;14.50;14.80;;;;;;5115195;28;20376;-73
2023/05/03 10:37:02;;;;;;;12.02;6.47;;;14.70;15.90;;;;;;5098962;28;20395;-74
2023/05/03 10:39:29;;;;;;;11.63;7.00;;;14.90;14.10;;;;;;5095802;28;20423;-73
2023/05/03 10:42:03;;;;;;;15.55;6.13;;;14.80;13.50;;;;;;5093330;28;20744;-72
2023/05/03 10:44:48;;;;;;;12.85;6.82;;;14.70;12.30;;;;;;5112429;28;20406;-72
2023/05/03 10:47:32;;;;;;;11.10;5.85;;;14.50;13.00;;;;;;5111594;28;20376;-73
2023/05/03 10:50:13;;;;;;;10.02;5.70;;;14.30;13.00;;;;;;5111878;28;20456;-71
2023/05/03 10:52:38;;;;;;;10.55;6.18;;;14.10;14.10;;;;;;5111050;28;20433;-72
2023/05/03 10:55:17;;;;;;;19.40;7.97;;;14.30;14.30;;;;;;5111756;28;20372;-72
2023/05/03 10:57:45;;;;;;;6.78;5.80;;;14.50;13.40;;;;;;5112122;28;20449;-72
2023/05/03 11:00:18;;;;;;;9.10;5.50;;;14.70;12.90;;;;;;5111621;28;20385;-72
2023/05/03 11:03:05;;;;;;;13.52;6.28;;;14.80;12.40;;;;;;5110695;28;20445;-72
2023/05/03 11:05:32;;;;;;;10.52;5.90;;;14.70;12.00;;;;;;5111949;28;20791;-72
2023/05/03 11:08:12;;;;;;;9.57;6.28;;;14.50;12.30;;;;;;5093119;28;20408;-72
2023/05/03 11:10:39;;;;;;;12.90;7.00;;;14.70;13.90;;;;;;5093222;28;20476;-72
2023/05/03 11:13:05;;;;;;;11.32;6.55;;;14.90;12.90;;;;;;5110772;28;20376;-74
2023/05/03 11:15:31;;;;;;;11.90;6.35;;;14.90;13.40;;;;;;5111175;28;20758;-73
2023/05/03 11:17:57;;;;;;;12.57;6.60;;;15.00;13.10;;;;;;5111381;28;20437;-74
2023/05/03 11:20:23;;;;;;;12.55;6.70;;;15.20;13.80;;;;;;5111211;28;20400;-73
2023/05/03 11:22:49;;;;;;;12.90;6.93;;;15.40;11.80;;;;;;5110625;28;20384;-73
2023/05/03 11:25:15;;;;;;;13.13;6.10;;;15.40;10.50;;;;;;5112905;28;20391;-73
2023/05/03 11:27:41;;;;;;;10.97;6.37;;;15.50;11.20;;;;;;5111849;28;20760;-72
2023/05/03 11:30:09;;;;;;;10.38;6.30;;;15.70;11.30;;;;;;5111347;28;20432;-73
2023/05/03 11:32:38;;;;;;;12.00;5.85;;;15.70;11.40;;;;;;5110872;28;20864;-72
2023/05/03 11:35:06;;;;;;;10.93;5.40;;;15.90;12.40;;;;;;5111300;28;20406;-73
2023/05/03 11:37:32;;;;;;;13.10;6.30;;;16.00;11.20;;;;;;5093178;28;20384;-74
2023/05/03 11:39:58;;;;;;;13.52;6.60;;;15.90;11.10;;;;;;5111200;28;20403;-73
2023/05/03 11:42:25;;;;;;;9.77;5.75;;;16.00;11.00;;;;;;5092194;28;20446;-72
2023/05/03 11:44:55;;;;;;;10.07;6.60;;;16.20;10.20;;;;;;5111312;28;20471;-71
2023/05/03 11:47:21;;;;;;;13.48;7.07;;;16.30;11.90;;;;;;5111267;28;20400;-73
2023/05/03 11:49:55;;;;;;;22.33;7.32;;;16.30;11.20;;;;;;5111129;28;20718;-73
2023/05/03 11:52:25;;;;;;;14.82;6.30;;;16.40;9.60;;;;;;5110917;28;20369;-73
2023/05/03 11:54:51;;;;;;;11.90;5.72;;;16.70;11.50;;;;;;5111702;28;20872;-72
2023/05/03 11:57:17;;;;;;;8.53;5.70;;;16.80;8.90;;;;;;5111563;28;20470;-74
2023/05/03 11:59:43;;;;;;;16.75;6.13;;;16.80;8.60;;;;;;5112021;28;20406;-71
2023/05/03 12:02:12;;;;;;;9.00;5.95;;;16.90;9.30;;;;;;5111564;28;20884;-72
2023/05/03 12:04:40;;;;;;;15.30;6.60;;;16.90;10.30;;;;;;5113930;28;20405;-73
2023/05/03 12:07:06;;;;;;;13.65;6.70;;;16.80;8.50;;;;;;5115193;28;20391;-73
2023/05/03 12:09:32;;;;;;;13.98;6.50;;;16.80;9.00;;;;;;5115357;28;20376;-71
2023/05/03 12:11:58;;;;;;;13.55;7.50;;;16.90;8.50;;;;;;5096271;28;20509;-72
2023/05/03 12:14:24;;;;;;;12.85;6.30;;;16.80;9.30;;;;;;5114840;28;20376;-71
2023/05/03 12:16:51;;;;;;;10.32;5.10;;;17.00;9.00;;;;;;5114750;28;20380;-72
2023/05/03 12:19:27;;;;;;;13.88;6.15;;;16.90;9.50;;;;;;5114392;28;20407;-72
2023/05/03 12:21:53;;;;;;;11.10;6.68;;;16.70;9.20;;;;;;5095458;28;20384;-71
2023/05/03 12:24:21;;;;;;;17.00;6.60;;;17.00;10.50;;;;;;5095949;28;20722;-72
2023/05/03 12:26:47;;;;;;;11.07;6.25;;;17.00;9.10;;;;;;5114276;28;20407;-75
2023/05/03 12:29:14;;;;;;;10.25;6.10;;;17.10;8.60;;;;;;5113846;28;20404;-72
2023/05/03 12:31:39;;;;;;;10.25;6.00;;;17.30;8.20;;;;;;5113477;28;20429;-72
2023/05/03 12:34:06;;;;;;;9.40;6.80;;;17.50;9.90;;;;;;5114517;28;20869;-73
2023/05/03 12:36:32;;;;;;;14.75;6.80;;;17.70;8.20;;;;;;5114415;28;20376;-72
2023/05/03 12:38:59;;;;;;;11.15;6.00;;;17.70;7.10;;;;;;5114148;28;20872;-72
2023/05/03 12:41:26;;;;;;;14.93;5.93;;;17.80;7.80;;;;;;5113430;28;20391;-73